createdAt,value
2024-03-10T00:01:31.976Z,99978.19
2024-03-10T00:03:59.594Z,99980.84
2024-03-10T00:06:26.098Z,99983.53
2024-03-10T00:08:54.420Z,99976.63
2024-03-10T00:11:21.728Z,99985.69
2024-03-10T00:13:50.087Z,99976.88
2024-03-10T00:16:17.406Z,99983.56
2024-03-10T00:18:43.826Z,99973.66
2024-03-10T00:21:10.283Z,99976.91
2024-03-10T00:23:38.043Z,99979.56
2024-03-10T00:26:07.057Z,99981.41
2024-03-10T00:28:37.594Z,99977.16
2024-03-10T00:31:04.819Z,99977.97
2024-03-10T00:33:31.525Z,99964.88
2024-03-10T00:35:58.948Z,99968.38
2024-03-10T00:38:25.745Z,99973.94
2024-03-10T00:40:52.329Z,99968.88
2024-03-10T00:43:18.805Z,99964.63
2024-03-10T00:45:45.397Z,99951.28
2024-03-10T00:48:13.013Z,99947.84
2024-03-10T00:50:41.290Z,99959.56
2024-03-10T00:53:08.148Z,99964.09
2024-03-10T00:55:34.706Z,99962.25
2024-03-10T00:58:01.371Z,99956.09
2024-03-10T01:00:29.818Z,99955.56
2024-03-10T01:02:56.656Z,99956.38
2024-03-10T01:05:24.266Z,99956.38
2024-03-10T01:07:51.318Z,99964.91
2024-03-10T01:10:18.046Z,99966.78
2024-03-10T01:12:44.584Z,99970.22
2024-03-10T01:15:11.333Z,99979.28
2024-03-10T01:17:37.855Z,99980.38
2024-03-10T01:20:05.247Z,99976.91
2024-03-10T01:22:32.792Z,99982.25
2024-03-10T01:24:59.446Z,99985.16
2024-03-10T01:27:25.926Z,99989.44
2024-03-10T01:29:52.444Z,99988.09
2024-03-10T01:32:19.187Z,99977.44
2024-03-10T01:34:45.778Z,99977.97
2024-03-10T01:37:12.255Z,99967.03
2024-03-10T01:39:38.724Z,99962.25
2024-03-10T01:42:06.560Z,99961.97
2024-03-10T01:44:33.544Z,99958.00
2024-03-10T01:47:00.604Z,99952.38
2024-03-10T01:49:27.893Z,99943.88
2024-03-10T01:51:56.580Z,99940.91
2024-03-10T01:54:29.362Z,99924.94
2024-03-10T01:56:56.710Z,99931.31
2024-03-10T01:59:23.939Z,99925.50
2024-03-10T02:01:51.867Z,99916.69
2024-03-10T02:04:18.681Z,99909.22
2024-03-10T02:06:45.303Z,99911.88
2024-03-10T02:09:13.697Z,99911.88
2024-03-10T02:11:40.336Z,99899.91
2024-03-10T02:14:09.025Z,99902.56
2024-03-10T02:16:35.861Z,99898.06
2024-03-10T02:19:03.134Z,99896.97
2024-03-10T02:21:29.689Z,99901.50
2024-03-10T02:24:12.931Z,99905.22
2024-03-10T02:26:43.532Z,99906.03
2024-03-10T02:29:17.108Z,99900.97
2024-03-10T02:32:03.051Z,99903.09
2024-03-10T02:34:48.572Z,99905.75
2024-03-10T02:37:33.417Z,99911.09
2024-03-10T02:40:18.846Z,99903.09
2024-03-10T02:43:04.451Z,99901.50
2024-03-10T02:45:49.612Z,99898.31
2024-03-10T02:48:16.202Z,99898.31
2024-03-10T02:50:42.941Z,99902.84
2024-03-10T02:53:11.440Z,99918.03
2024-03-10T02:55:38.476Z,99906.56
2024-03-10T02:58:06.319Z,99897.78
2024-03-10T03:00:39.451Z,99883.13
2024-03-10T03:03:09.916Z,99870.59
2024-03-10T03:05:37.782Z,99898.31
2024-03-10T03:08:05.155Z,99903.63
2024-03-10T03:10:31.782Z,99909.78
2024-03-10T03:12:58.276Z,99908.16
2024-03-10T03:15:24.727Z,99882.34
2024-03-10T03:17:51.787Z,99882.59
2024-03-10T03:20:22.190Z,99880.97
2024-03-10T03:22:50.130Z,99882.84
2024-03-10T03:25:19.863Z,99882.31
2024-03-10T03:27:51.650Z,99877.53
2024-03-10T03:30:18.869Z,99883.66
2024-03-10T03:32:45.672Z,99874.84
2024-03-10T03:35:12.421Z,99874.34
2024-03-10T03:37:39.577Z,99863.16
2024-03-10T03:40:10.621Z,99846.13
2024-03-10T03:42:37.264Z,99849.31
2024-03-10T03:45:07.140Z,99841.06
2024-03-10T03:47:34.080Z,99846.63
2024-03-10T03:50:01.105Z,99852.47
2024-03-10T03:52:27.607Z,99863.41
2024-03-10T03:54:54.146Z,99872.47
2024-03-10T03:57:21.347Z,99875.41
2024-03-10T03:59:48.112Z,99866.59
2024-03-10T04:02:14.636Z,99851.69
2024-03-10T04:04:41.427Z,99844.25
2024-03-10T04:07:08.089Z,99844.25
2024-03-10T04:09:35.444Z,99835.72
2024-03-10T04:12:02.415Z,99826.66
2024-03-10T04:14:29.824Z,99822.41
2024-03-10T04:16:56.502Z,99828.25
2024-03-10T04:19:23.095Z,99828.25
2024-03-10T04:21:49.590Z,99823.97
2024-03-10T04:24:17.058Z,99818.94
2024-03-10T04:26:44.365Z,99824.53
2024-03-10T04:29:12.594Z,99810.16
2024-03-10T04:31:41.932Z,99812.00
2024-03-10T04:34:12.472Z,99814.13
2024-03-10T04:36:39.074Z,99814.66
2024-03-10T04:39:06.414Z,99816.25
2024-03-10T04:41:33.134Z,99815.94
2024-03-10T04:43:59.661Z,99803.19
2024-03-10T04:46:27.020Z,99801.84
2024-03-10T04:48:53.540Z,99803.16
2024-03-10T04:51:19.992Z,99801.31
2024-03-10T04:53:46.574Z,99813.28
2024-03-10T04:56:15.878Z,99800.22
2024-03-10T04:58:42.734Z,99803.41
2024-03-10T05:01:09.879Z,99798.63
2024-03-10T05:03:38.592Z,99793.81
2024-03-10T05:06:06.468Z,99793.56
2024-03-10T05:08:33.061Z,99788.22
2024-03-10T05:11:01.412Z,99793.25
2024-03-10T05:13:28.017Z,99798.84
2024-03-10T05:15:54.467Z,99797.75
2024-03-10T05:18:20.905Z,99796.44
2024-03-10T05:20:47.569Z,99800.69
2024-03-10T05:23:14.103Z,99796.69
2024-03-10T05:25:40.653Z,99800.41
2024-03-10T05:28:07.294Z,99803.88
2024-03-10T05:30:33.692Z,99801.44
2024-03-10T05:33:00.211Z,99798.00
2024-03-10T05:35:26.894Z,99795.88
2024-03-10T05:37:53.469Z,99791.06
2024-03-10T05:40:19.997Z,99801.69
2024-03-10T05:42:47.203Z,99793.44
2024-03-10T05:45:13.829Z,99787.59
2024-03-10T05:47:40.527Z,99786.78
2024-03-10T05:50:08.321Z,99785.19
2024-03-10T05:52:34.860Z,99792.13
2024-03-10T05:55:01.508Z,99770.84
2024-03-10T05:57:31.319Z,99786.25
2024-03-10T05:59:58.161Z,99784.13
2024-03-10T06:02:24.678Z,99791.34
2024-03-10T06:04:51.403Z,99793.16
2024-03-10T06:07:18.044Z,99799.31
2024-03-10T06:09:44.562Z,99791.34
2024-03-10T06:12:11.599Z,99785.19
2024-03-10T06:14:39.730Z,99783.59
2024-03-10T06:17:09.290Z,99778.03
2024-03-10T06:19:54.356Z,99786.00
2024-03-10T06:22:39.497Z,99772.72
2024-03-10T06:25:28.397Z,99781.75
2024-03-10T06:27:57.785Z,99779.38
2024-03-10T06:30:24.858Z,99784.41
2024-03-10T06:32:51.867Z,99794.00
2024-03-10T06:35:21.340Z,99795.59
2024-03-10T06:37:49.300Z,99796.13
2024-03-10T06:40:17.407Z,99799.06
2024-03-10T06:42:46.427Z,99793.75
2024-03-10T06:45:14.145Z,99794.81
2024-03-10T06:47:42.748Z,99785.53
2024-03-10T06:50:11.071Z,99785.28
2024-03-10T06:52:38.379Z,99782.09
2024-03-10T06:55:09.838Z,99786.88
2024-03-10T06:57:36.439Z,99782.91
2024-03-10T07:00:03.312Z,99785.56
2024-03-10T07:02:30.570Z,99784.78
2024-03-10T07:04:58.141Z,99785.59
2024-03-10T07:07:27.455Z,99792.25
2024-03-10T07:09:55.118Z,99789.56
2024-03-10T07:12:21.789Z,99797.03
2024-03-10T07:14:49.384Z,99800.25
2024-03-10T07:17:16.555Z,99794.66
2024-03-10T07:19:43.300Z,99795.19
2024-03-10T07:22:10.331Z,99800.53
2024-03-10T07:24:38.830Z,99794.44
2024-03-10T07:27:06.718Z,99797.13
2024-03-10T07:29:33.482Z,99790.75
2024-03-10T07:31:59.975Z,99802.97
2024-03-10T07:34:26.451Z,99806.44
2024-03-10T07:36:52.932Z,99808.03
2024-03-10T07:39:19.451Z,99811.75
2024-03-10T07:41:46.053Z,99819.47
2024-03-10T07:44:12.625Z,99823.19
2024-03-10T07:46:39.185Z,99832.50
2024-03-10T07:49:07.417Z,99849.81
2024-03-10T07:51:34.186Z,99850.06
2024-03-10T07:54:01.785Z,99846.84
2024-03-10T07:56:31.437Z,99853.47
2024-03-10T07:58:58.737Z,99848.91
2024-03-10T08:01:25.221Z,99851.81
2024-03-10T08:03:52.149Z,99843.53
2024-03-10T08:06:18.673Z,99840.56
2024-03-10T08:08:45.400Z,99840.03
2024-03-10T08:11:12.182Z,99841.28
2024-03-10T08:13:40.039Z,99846.84
2024-03-10T08:16:07.178Z,99838.84
2024-03-10T08:18:33.752Z,99840.38
2024-03-10T08:21:00.251Z,99827.78
2024-03-10T08:23:26.773Z,99825.56
2024-03-10T08:25:54.973Z,99825.47
2024-03-10T08:28:21.441Z,99816.38
2024-03-10T08:30:50.467Z,99821.09
2024-03-10T08:33:17.472Z,99823.44
2024-03-10T08:35:44.109Z,99822.09
2024-03-10T08:38:10.774Z,99822.06
2024-03-10T08:40:38.210Z,99826.84
2024-03-10T08:43:05.196Z,99833.22
2024-03-10T08:45:32.821Z,99834.25
2024-03-10T08:47:59.499Z,99840.34
2024-03-10T08:50:26.362Z,99840.66
2024-03-10T08:52:52.947Z,99839.72
2024-03-10T08:55:20.113Z,99836.97
2024-03-10T08:57:46.823Z,99830.44
2024-03-10T09:00:18.608Z,99830.03
2024-03-10T09:02:45.149Z,99831.03
2024-03-10T09:05:14.344Z,99822.56
2024-03-10T09:07:41.314Z,99829.00
2024-03-10T09:10:09.100Z,99822.22
2024-03-10T09:12:35.942Z,99822.44
2024-03-10T09:15:02.915Z,99825.63
2024-03-10T09:17:30.495Z,99811.41
2024-03-10T09:19:59.650Z,99810.03
2024-03-10T09:22:26.216Z,99810.25
2024-03-10T09:24:52.670Z,99811.91
2024-03-10T09:27:20.420Z,99809.53
2024-03-10T09:29:48.204Z,99809.97
2024-03-10T09:32:21.630Z,99805.56
2024-03-10T09:34:48.529Z,99807.94
2024-03-10T09:37:15.204Z,99811.13
2024-03-10T09:39:41.641Z,99801.00
2024-03-10T09:42:08.304Z,99797.22
2024-03-10T09:44:36.307Z,99793.81
2024-03-10T09:47:04.154Z,99797.28
2024-03-10T09:49:31.146Z,99798.78
2024-03-10T09:51:58.450Z,99803.09
2024-03-10T09:54:26.635Z,99795.66
2024-03-10T09:56:53.705Z,99781.88
2024-03-10T09:59:45.716Z,99789.84
2024-03-10T10:02:33.445Z,99790.59
2024-03-10T10:05:07.721Z,99780.81
2024-03-10T10:07:35.494Z,99782.84
2024-03-10T10:10:02.201Z,99780.44
2024-03-10T10:12:29.280Z,99780.13
2024-03-10T10:14:55.899Z,99779.94
2024-03-10T10:17:26.538Z,99773.00
2024-03-10T10:19:53.183Z,99780.09
2024-03-10T10:22:21.671Z,99762.63
2024-03-10T10:25:07.797Z,99763.59
2024-03-10T10:27:48.828Z,99752.28
2024-03-10T10:30:29.741Z,99751.09
2024-03-10T10:33:10.121Z,99748.03
2024-03-10T10:35:40.596Z,99742.53
2024-03-10T10:38:15.312Z,99740.13
2024-03-10T10:40:49.049Z,99735.50
2024-03-10T10:43:17.761Z,99733.97
2024-03-10T10:45:44.929Z,99752.63
2024-03-10T10:48:12.522Z,99747.69
2024-03-10T10:50:43.835Z,99736.38
2024-03-10T10:53:13.009Z,99742.06
2024-03-10T10:55:41.457Z,99751.75
2024-03-10T10:58:12.975Z,99742.63
2024-03-10T11:00:44.041Z,99749.59
2024-03-10T11:03:18.557Z,99755.81
2024-03-10T11:06:07.459Z,99748.09
2024-03-10T11:08:38.152Z,99763.75
2024-03-10T11:11:05.233Z,99751.72
2024-03-10T11:13:33.241Z,99766.47
2024-03-10T11:16:10.291Z,99759.44
2024-03-10T11:18:40.255Z,99750.00
2024-03-10T11:21:14.250Z,99758.38
2024-03-10T11:23:44.813Z,99755.38
2024-03-10T11:26:16.922Z,99763.00
2024-03-10T11:28:51.377Z,99768.47
2024-03-10T11:31:37.082Z,99763.72
2024-03-10T11:34:06.297Z,99766.81
2024-03-10T11:36:37.958Z,99763.78
2024-03-10T11:39:05.998Z,99763.00
2024-03-10T11:41:33.370Z,99759.84
2024-03-10T11:44:00.792Z,99751.59
2024-03-10T11:46:34.190Z,99773.59
2024-03-10T11:49:02.278Z,99772.50
2024-03-10T11:51:34.760Z,99770.13
2024-03-10T11:54:05.878Z,99765.06
2024-03-10T11:56:35.331Z,99774.22
2024-03-10T11:59:04.764Z,99773.25
2024-03-10T12:01:31.929Z,99778.97
2024-03-10T12:04:10.595Z,99766.31
2024-03-10T12:06:37.966Z,99765.03
2024-03-10T12:09:13.276Z,99764.09
2024-03-10T12:11:43.474Z,99748.34
2024-03-10T12:14:12.283Z,99744.44
2024-03-10T12:16:49.030Z,99741.59
2024-03-10T12:19:16.233Z,99744.13
2024-03-10T12:21:43.047Z,99740.72
2024-03-10T12:24:11.929Z,99749.38
2024-03-10T12:26:38.734Z,99743.94
2024-03-10T12:29:07.181Z,99749.28
2024-03-10T12:31:36.816Z,99746.84
2024-03-10T12:34:04.100Z,99732.59
2024-03-10T12:36:34.673Z,99727.38
2024-03-10T12:39:01.240Z,99722.25
2024-03-10T12:41:28.012Z,99723.59
2024-03-10T12:43:56.770Z,99730.50
2024-03-10T12:46:24.776Z,99737.69
2024-03-10T12:48:51.425Z,99733.22
2024-03-10T12:51:17.995Z,99740.22
2024-03-10T12:53:44.621Z,99728.41
2024-03-10T12:56:13.908Z,99732.72
2024-03-10T12:58:41.191Z,99722.44
2024-03-10T13:01:08.451Z,99723.94
2024-03-10T13:03:35.616Z,99730.75
2024-03-10T13:06:03.284Z,99740.91
2024-03-10T13:08:30.753Z,99735.72
2024-03-10T13:10:57.469Z,99728.25
2024-03-10T13:13:24.510Z,99730.22
2024-03-10T13:15:55.704Z,99737.25
2024-03-10T13:18:23.013Z,99730.06
2024-03-10T13:20:49.828Z,99731.06
2024-03-10T13:23:16.451Z,99726.06
2024-03-10T13:25:42.947Z,99725.13
2024-03-10T13:28:09.394Z,99712.56
2024-03-10T13:30:36.326Z,99719.94
2024-03-10T13:33:03.030Z,99722.97
2024-03-10T13:35:30.714Z,99715.13
2024-03-10T13:37:57.334Z,99721.66
2024-03-10T13:40:26.696Z,99715.13
2024-03-10T13:42:54.257Z,99721.78
2024-03-10T13:45:31.456Z,99714.91
2024-03-10T13:48:05.620Z,99709.03
2024-03-10T13:50:34.954Z,99703.31
2024-03-10T13:53:01.539Z,99708.44
2024-03-10T13:55:28.523Z,99705.47
2024-03-10T13:57:55.578Z,99694.78
2024-03-10T14:00:25.664Z,99693.91
2024-03-10T14:02:54.604Z,99694.25
2024-03-10T14:05:22.775Z,99679.75
2024-03-10T14:07:49.400Z,99681.47
2024-03-10T14:10:18.535Z,99675.13
2024-03-10T14:12:45.894Z,99684.69
2024-03-10T14:15:15.626Z,99684.56
2024-03-10T14:17:44.367Z,99688.81
2024-03-10T14:20:16.562Z,99686.16
2024-03-10T14:22:49.714Z,99679.75
2024-03-10T14:25:18.510Z,99678.44
2024-03-10T14:27:53.316Z,99672.03
2024-03-10T14:30:26.204Z,99664.06
2024-03-10T14:33:04.151Z,99677.28
2024-03-10T14:35:31.214Z,99665.91
2024-03-10T14:37:57.713Z,99666.94
2024-03-10T14:40:24.404Z,99663.88
2024-03-10T14:42:54.760Z,99660.94
2024-03-10T14:45:21.971Z,99656.78
2024-03-10T14:47:50.808Z,99663.25
2024-03-10T14:50:22.801Z,99673.25
2024-03-10T14:52:50.788Z,99671.00
2024-03-10T14:55:17.677Z,99668.50
2024-03-10T14:57:45.106Z,99672.78
2024-03-10T15:00:41.033Z,99667.81
2024-03-10T15:03:17.612Z,99671.31
2024-03-10T15:05:45.756Z,99668.78
2024-03-10T15:08:16.899Z,99664.06
2024-03-10T15:10:48.545Z,99671.94
2024-03-10T15:13:16.801Z,99673.25
2024-03-10T15:15:43.431Z,99672.47
2024-03-10T15:18:10.191Z,99673.75
2024-03-10T15:20:40.628Z,99682.84
2024-03-10T15:23:07.466Z,99666.41
2024-03-10T15:25:38.204Z,99671.19
2024-03-10T15:28:06.408Z,99667.41
2024-03-10T15:30:33.937Z,99671.41
2024-03-10T15:33:00.757Z,99667.75
2024-03-10T15:35:27.781Z,99664.78
2024-03-10T15:37:54.468Z,99660.06
2024-03-10T15:40:21.082Z,99665.44
2024-03-10T15:42:48.147Z,99667.81
2024-03-10T15:45:21.138Z,99661.94
2024-03-10T15:47:49.999Z,99663.00
2024-03-10T15:50:19.908Z,99668.56
2024-03-10T15:52:48.900Z,99680.44
2024-03-10T15:55:18.045Z,99689.25
2024-03-10T15:57:46.964Z,99689.09
2024-03-10T16:00:21.384Z,99697.78
2024-03-10T16:02:53.660Z,99710.16
2024-03-10T16:05:44.367Z,99708.56
2024-03-10T16:08:12.801Z,99709.19
2024-03-10T16:10:41.982Z,99705.88
2024-03-10T16:13:16.609Z,99722.78
2024-03-10T16:15:45.377Z,99708.41
2024-03-10T16:18:13.312Z,99711.69
2024-03-10T16:20:45.384Z,99717.22
2024-03-10T16:23:13.090Z,99721.00
2024-03-10T16:25:40.606Z,99712.94
2024-03-10T16:28:07.110Z,99716.97
2024-03-10T16:30:33.597Z,99721.25
2024-03-10T16:33:03.010Z,99729.81
2024-03-10T16:35:30.687Z,99732.28
2024-03-10T16:37:58.193Z,99733.03
2024-03-10T16:40:24.966Z,99735.72
2024-03-10T16:42:51.483Z,99729.94
2024-03-10T16:45:19.766Z,99735.50
2024-03-10T16:47:48.279Z,99742.38
2024-03-10T16:50:20.320Z,99745.63
2024-03-10T16:52:46.881Z,99744.53
2024-03-10T16:55:14.336Z,99749.50
2024-03-10T16:57:40.899Z,99757.72
2024-03-10T17:00:14.207Z,99761.41
2024-03-10T17:02:45.619Z,99760.72
2024-03-10T17:05:16.467Z,99758.16
2024-03-10T17:07:43.468Z,99748.91
2024-03-10T17:10:11.216Z,99752.00
2024-03-10T17:12:38.970Z,99758.59
2024-03-10T17:15:17.243Z,99755.72
2024-03-10T17:17:45.557Z,99767.66
2024-03-10T17:20:13.877Z,99786.03
2024-03-10T17:22:41.681Z,99797.44
2024-03-10T17:25:09.401Z,99798.66
2024-03-10T17:27:37.296Z,99810.38
2024-03-10T17:30:04.499Z,99810.66
2024-03-10T17:32:31.108Z,99804.88
2024-03-10T17:34:58.218Z,99807.38
2024-03-10T17:37:26.073Z,99807.19
2024-03-10T17:39:55.707Z,99818.28
2024-03-10T17:42:25.104Z,99804.97
2024-03-10T17:44:51.678Z,99806.94
2024-03-10T17:47:18.207Z,99808.03
2024-03-10T17:49:44.833Z,99812.09
2024-03-10T17:52:11.727Z,99818.84
2024-03-10T17:54:38.367Z,99805.91
2024-03-10T17:57:05.738Z,99810.22
2024-03-10T17:59:32.939Z,99800.59
2024-03-10T18:02:00.803Z,99805.44
2024-03-10T18:04:27.661Z,99806.31
2024-03-10T18:06:54.201Z,99814.16
2024-03-10T18:09:21.084Z,99816.91
2024-03-10T18:11:50.890Z,99825.03
2024-03-10T18:14:18.149Z,99813.03
2024-03-10T18:16:45.257Z,99821.91
2024-03-10T18:19:12.818Z,99812.88
2024-03-10T18:21:41.105Z,99823.88
2024-03-10T18:24:10.407Z,99823.34
2024-03-10T18:26:43.997Z,99833.59
2024-03-10T18:29:14.446Z,99839.00
2024-03-10T18:31:43.032Z,99838.47
2024-03-10T18:34:12.773Z,99839.88
2024-03-10T18:36:40.302Z,99847.69
2024-03-10T18:39:10.384Z,99844.78
2024-03-10T18:41:37.833Z,99848.59
2024-03-10T18:44:05.240Z,99857.41
2024-03-10T18:46:32.708Z,99869.50
2024-03-10T18:48:59.301Z,99875.16
2024-03-10T18:51:25.961Z,99878.91
2024-03-10T18:53:52.882Z,99891.47
2024-03-10T18:56:20.885Z,99879.78
2024-03-10T18:58:47.467Z,99882.47
2024-03-10T19:01:17.470Z,99876.59
2024-03-10T19:03:48.120Z,99879.25
2024-03-10T19:06:17.340Z,99872.09
2024-03-10T19:08:44.995Z,99875.03
2024-03-10T19:11:12.533Z,99875.59
2024-03-10T19:13:39.746Z,99870.25
2024-03-10T19:16:07.206Z,99872.44
2024-03-10T19:18:33.806Z,99866.06
2024-03-10T19:21:01.747Z,99867.44
2024-03-10T19:23:30.138Z,99864.75
2024-03-10T19:26:00.400Z,99864.50
2024-03-10T19:28:27.585Z,99854.41
2024-03-10T19:30:55.771Z,99853.88
2024-03-10T19:33:23.340Z,99846.94
2024-03-10T19:35:50.366Z,99854.47
2024-03-10T19:38:17.481Z,99842.47
2024-03-10T19:40:44.415Z,99850.25
2024-03-10T19:43:13.900Z,99847.34
2024-03-10T19:45:42.863Z,99850.00
2024-03-10T19:48:09.989Z,99846.81
2024-03-10T19:50:36.602Z,99846.59
2024-03-10T19:53:03.632Z,99846.59
2024-03-10T19:55:30.164Z,99853.03
2024-03-10T19:57:57.636Z,99849.84
2024-03-10T20:00:24.797Z,99849.06
2024-03-10T20:02:51.331Z,99848.81
2024-03-10T20:05:18.753Z,99845.34
2024-03-10T20:07:52.321Z,99851.75
2024-03-10T20:10:21.364Z,99855.50
2024-03-10T20:12:50.790Z,99861.97
2024-03-10T20:15:20.533Z,99859.56
2024-03-10T20:17:50.159Z,99863.81
2024-03-10T20:20:23.584Z,99856.88
2024-03-10T20:22:51.187Z,99861.72
2024-03-10T20:25:19.575Z,99870.81
2024-03-10T20:27:46.880Z,99872.69
2024-03-10T20:30:13.570Z,99871.63
2024-03-10T20:32:41.326Z,99882.31
2024-03-10T20:35:08.663Z,99877.00
2024-03-10T20:37:35.554Z,99876.50
2024-03-10T20:40:02.587Z,99882.66
2024-03-10T20:42:31.989Z,99888.25
2024-03-10T20:44:58.500Z,99883.72
2024-03-10T20:47:25.092Z,99879.75
2024-03-10T20:49:52.853Z,99880.84
2024-03-10T20:52:19.420Z,99881.16
2024-03-10T20:54:45.863Z,99880.34
2024-03-10T20:57:12.288Z,99883.81
2024-03-10T20:59:39.822Z,99888.66
2024-03-10T21:02:08.612Z,99881.41
2024-03-10T21:04:35.735Z,99887.56
2024-03-10T21:07:02.882Z,99884.66
2024-03-10T21:09:29.468Z,99888.41
2024-03-10T21:11:56.580Z,99891.09
2024-03-10T21:14:23.826Z,99887.34
2024-03-10T21:16:50.290Z,99890.28
2024-03-10T21:19:16.750Z,99889.75
2024-03-10T21:21:43.920Z,99893.00
2024-03-10T21:24:10.545Z,99891.69
2024-03-10T21:26:37.090Z,99901.03
2024-03-10T21:29:04.473Z,99903.41
2024-03-10T21:31:31.066Z,99903.19
2024-03-10T21:33:57.643Z,99892.50
2024-03-10T21:36:24.582Z,99894.13
2024-03-10T21:38:51.716Z,99897.56
2024-03-10T21:41:18.869Z,99900.25
2024-03-10T21:43:47.100Z,99889.84
2024-03-10T21:46:13.565Z,99889.84
2024-03-10T21:48:40.784Z,99895.19
2024-03-10T21:51:07.354Z,99896.81
2024-03-10T21:53:35.220Z,99896.31
2024-03-10T21:56:04.714Z,99898.47
2024-03-10T21:58:31.421Z,99892.31
2024-03-10T22:00:58.079Z,99897.13
2024-03-10T22:03:26.095Z,99894.75
2024-03-10T22:05:52.658Z,99897.41
2024-03-10T22:08:19.238Z,99892.38
2024-03-10T22:10:45.792Z,99888.09
2024-03-10T22:13:12.250Z,99901.72
2024-03-10T22:15:38.701Z,99890.25
2024-03-10T22:18:05.780Z,99901.97
2024-03-10T22:20:32.460Z,99893.97
2024-03-10T22:22:59.206Z,99898.53
2024-03-10T22:25:27.383Z,99900.38
2024-03-10T22:27:54.790Z,99899.59
2024-03-10T22:30:28.330Z,99899.31
2024-03-10T22:32:55.243Z,99891.59
2024-03-10T22:35:22.105Z,99895.06
2024-03-10T22:37:50.897Z,99890.00
2024-03-10T22:40:20.446Z,99893.75
2024-03-10T22:42:50.784Z,99898.56
2024-03-10T22:45:28.765Z,99897.78
2024-03-10T22:47:58.521Z,99891.91
2024-03-10T22:50:26.134Z,99899.94
2024-03-10T22:52:52.954Z,99890.84
2024-03-10T22:55:20.574Z,99894.28
2024-03-10T22:57:47.233Z,99900.22
2024-03-10T23:00:23.513Z,99902.06
2024-03-10T23:02:54.639Z,99893.53
2024-03-10T23:05:26.548Z,99890.34
2024-03-10T23:08:09.915Z,99899.72
2024-03-10T23:10:39.659Z,99889.03
2024-03-10T23:13:07.439Z,99893.84
2024-03-10T23:15:34.733Z,99897.34
2024-03-10T23:18:01.851Z,99901.63
2024-03-10T23:20:28.867Z,99904.56
2024-03-10T23:23:01.128Z,99908.56
2024-03-10T23:25:27.870Z,99905.91
2024-03-10T23:27:55.065Z,99908.31
2024-03-10T23:30:21.772Z,99898.19
2024-03-10T23:32:50.748Z,99904.88
2024-03-10T23:35:18.251Z,99905.72
2024-03-10T23:37:45.007Z,99907.84
2024-03-10T23:40:12.478Z,99910.53
2024-03-10T23:42:45.716Z,99907.31
2024-03-10T23:45:15.764Z,99904.13
2024-03-10T23:47:44.917Z,99910.81
2024-03-10T23:50:15.153Z,99905.72
2024-03-10T23:52:44.011Z,99908.69
2024-03-10T23:55:13.298Z,99909.75
2024-03-10T23:57:43.647Z,99921.25
